Waco Regional Airport
KACT : now visible

Airfield :











YOU CAN JOIN US ON...

 
LOGIN :

Register | Disclaimer

   EN    FR    IT 

 









Legend :    VFR   Marginal VFR   IFR   Intensive IFR   Very Intensive IFR
Visi :
Ceiling :
>= 8 km
>= 3000ft
5 to 8 km
1000 to 3000 ft
1500m to 5 km
500 to 1000 ft
800 to 1500m
200 to 500 ft
< 800m
< 200 ft
Symbols :   Thunderstorms  Fog  Heavy snow  Heavy precipitations  Wind > 20 kt






- Airport Elevation : 516 ft
- IATA code : ACT


KACT - Waco Regional

CURRENT METAR :
  • 011351Z 34009KT 10SM FEW030 OVC090 M03/M04 A3036 RMK AO2 UPB00E07 SLP284 P0000 T10281044

EXPIRED METARs :
  • 011251Z AUTO 01006KT 10SM OVC095 M03/M04 A3037 RMK AO2 PRESRR SLP287 T10281044
  • 011151Z AUTO 01012KT 10SM FEW039 OVC110 M02/M04 A3033 RMK AO2 UPB11E20B38E48FZRAE03 SLP276 P0000 60001 70018 I1000 I6002 T10221039 11022 21028 58011

TAF KACT
Valid from the 01 at 12:00 until the 02 at 12:00 UTC


011120Z 0112/0212 36008KT P6SM SCT025 OVC040
TEMPO 0112/0114 -FZRA
FM011700 36008KT P6SM -FZDZ BKN020
FM012000 36007KT 5SM -FZRA OVC008
TEMPO 0121/0201 2SM FZRA
FM020100 36007KT 3SM -FZDZ BR OVC004
FM020800 36006KT 3SM -RA BR OVC004
KZFW FIR / North America



MET'MAP, your aeronautical weather chart ! - Copyright ORBIFLY December 2007 - Disclaimer

ORBIFLY MET'MAP TEAM :

Programming & Development : Alexandra Zaïnal
Original concept : Baudouin d'Aumeries
Technical & hardware support : Manuel Goepfert
Assistance : Marc-Olivier Méhu




SOURCES & CREDITS :

   NOAA       Earth
Advisory